Briary, Texas
Current Conditions -  °F | °C
As of 10:35 AM on Friday 28 Nov 2014 (Local Time) from KT35 Reporting Station
Scattered Clouds Scattered Clouds  
Wind Chill: 63°   Ceiling: Unl
Heat Index: 63°   Visibility: 10mi
Dew Point: 49°   Wind: 15mph
Humidity: 62%   Direction: 190°S
Pressure: 30.29"   Gusts: 20mph
Location:  31.0981°N, 96.99°W
Report Text: KT35 281635Z AUTO 19013G17KT 10SM SCT023 SCT029 17/10 A3029 RMK AO2 T01700096
Loading
Personal Weather Stations






























Interactive Weather Map New forecast layout! Learn more

10-Day Weather Forecast

Advertisements
Track Severe Weather on mobile